createdAt,value
2023-10-23T00:00:38.753Z,99.90
2023-10-23T00:03:21.455Z,99.90
2023-10-23T00:06:04.360Z,99.90
2023-10-23T00:08:43.261Z,99.90
2023-10-23T00:11:43.333Z,99.90
2023-10-23T00:14:20.494Z,99.90
2023-10-23T00:16:51.177Z,99.90
2023-10-23T00:19:30.386Z,99.90
2023-10-23T00:22:23.509Z,99.90
2023-10-23T00:25:03.306Z,99.90
2023-10-23T00:27:55.602Z,99.90
2023-10-23T00:30:38.181Z,99.90
2023-10-23T00:33:22.731Z,99.90
2023-10-23T00:36:14.596Z,99.90
2023-10-23T00:39:04.133Z,99.90
2023-10-23T00:41:44.778Z,99.90
2023-10-23T00:44:25.613Z,99.90
2023-10-23T00:47:07.100Z,99.90
2023-10-23T00:49:47.612Z,99.90
2023-10-23T00:52:39.128Z,99.90
2023-10-23T00:55:19.231Z,99.90
2023-10-23T00:58:09.825Z,99.90
2023-10-23T01:00:47.885Z,99.90
2023-10-23T01:03:24.310Z,99.90
2023-10-23T01:06:06.798Z,99.90
2023-10-23T01:08:55.461Z,99.90
2023-10-23T01:11:35.260Z,99.90
2023-10-23T01:14:11.044Z,99.90
2023-10-23T01:16:47.883Z,99.90
2023-10-23T01:19:25.302Z,99.90
2023-10-23T01:22:03.192Z,99.90
2023-10-23T01:24:50.838Z,99.90
2023-10-23T01:27:44.884Z,99.90
2023-10-23T01:30:26.068Z,99.90
2023-10-23T01:33:13.684Z,99.90
2023-10-23T01:35:52.707Z,99.90
2023-10-23T01:38:37.484Z,99.90
2023-10-23T01:41:25.494Z,99.90
2023-10-23T01:44:14.834Z,99.90
2023-10-23T01:46:56.393Z,99.90
2023-10-23T01:49:30.283Z,99.90
2023-10-23T01:52:06.566Z,99.90
2023-10-23T01:54:44.938Z,99.90
2023-10-23T01:57:15.567Z,99.90
2023-10-23T01:59:52.922Z,99.90
2023-10-23T02:02:32.383Z,99.90
2023-10-23T02:05:13.000Z,99.90
2023-10-23T02:07:59.650Z,99.90
2023-10-23T02:10:44.954Z,99.90
2023-10-23T02:13:31.056Z,99.90
2023-10-23T02:16:17.433Z,99.90
2023-10-23T02:19:04.953Z,99.90
2023-10-23T02:21:51.574Z,99.90
2023-10-23T02:24:23.947Z,99.90
2023-10-23T02:26:58.076Z,99.90
2023-10-23T02:29:39.607Z,99.90
2023-10-23T02:32:15.106Z,99.90
2023-10-23T02:35:02.680Z,99.90
2023-10-23T02:37:43.870Z,99.90
2023-10-23T02:40:25.980Z,99.90
2023-10-23T02:43:02.770Z,99.90
2023-10-23T02:45:48.175Z,99.90
2023-10-23T02:48:31.333Z,99.90
2023-10-23T02:51:15.103Z,99.90
2023-10-23T02:54:04.098Z,99.90
2023-10-23T02:56:48.111Z,99.90
2023-10-23T02:59:36.171Z,99.90
2023-10-23T03:02:24.251Z,99.90
2023-10-23T03:05:14.327Z,99.90
2023-10-23T03:07:57.935Z,99.90
2023-10-23T03:10:45.076Z,99.90
2023-10-23T03:13:32.302Z,99.90
2023-10-23T03:16:25.786Z,99.90
2023-10-23T03:19:04.955Z,99.90
2023-10-23T03:21:41.699Z,99.90
2023-10-23T03:24:28.220Z,99.90
2023-10-23T03:27:03.837Z,99.90
2023-10-23T03:29:43.997Z,99.90
2023-10-23T03:32:36.118Z,99.90
2023-10-23T03:35:21.670Z,99.90
2023-10-23T03:38:13.813Z,99.90
2023-10-23T03:41:03.345Z,99.90
2023-10-23T03:43:45.758Z,99.90
2023-10-23T03:46:33.206Z,99.90
2023-10-23T03:49:14.050Z,99.90
2023-10-23T03:51:45.308Z,99.90
2023-10-23T03:54:25.732Z,99.90
2023-10-23T03:57:15.576Z,99.90
2023-10-23T03:59:51.065Z,99.90
2023-10-23T04:02:20.332Z,99.90
2023-10-23T04:04:49.636Z,99.90
2023-10-23T04:07:18.804Z,99.90
2023-10-23T04:09:49.213Z,99.90
2023-10-23T04:12:18.588Z,99.90
2023-10-23T04:14:48.327Z,99.90
2023-10-23T04:17:18.789Z,99.90
2023-10-23T04:19:49.633Z,99.90
2023-10-23T04:22:18.961Z,99.90
2023-10-23T04:24:50.088Z,99.90
2023-10-23T04:27:19.191Z,99.90
2023-10-23T04:29:48.172Z,99.90
2023-10-23T04:32:17.562Z,99.90
2023-10-23T04:34:48.243Z,99.90
2023-10-23T04:37:17.678Z,99.90
2023-10-23T04:39:46.907Z,99.90
2023-10-23T04:42:18.512Z,99.90
2023-10-23T04:44:50.578Z,99.90
2023-10-23T04:47:19.903Z,99.90
2023-10-23T04:49:50.043Z,99.90
2023-10-23T04:52:19.563Z,99.90
2023-10-23T04:54:49.112Z,99.90
2023-10-23T04:57:19.418Z,99.90
2023-10-23T04:59:49.908Z,99.90
2023-10-23T05:02:21.730Z,99.90
2023-10-23T05:05:03.705Z,99.90
2023-10-23T05:07:41.788Z,99.90
2023-10-23T05:10:16.082Z,99.90
2023-10-23T05:13:09.475Z,99.90
2023-10-23T05:15:47.462Z,99.90
2023-10-23T05:18:35.862Z,99.90
2023-10-23T05:21:27.986Z,99.90
2023-10-23T05:24:16.069Z,99.90
2023-10-23T05:26:56.248Z,99.90
2023-10-23T05:29:48.397Z,99.90
2023-10-23T05:32:39.306Z,99.90
2023-10-23T05:35:20.379Z,99.90
2023-10-23T05:38:03.274Z,99.90
2023-10-23T05:40:39.366Z,99.90
2023-10-23T05:43:09.108Z,99.90
2023-10-23T05:45:40.150Z,99.90
2023-10-23T05:48:08.697Z,99.90
2023-10-23T05:50:40.946Z,99.90
2023-10-23T05:53:10.595Z,99.90
2023-10-23T05:55:39.822Z,99.90
2023-10-23T05:58:10.636Z,99.90
2023-10-23T06:00:43.908Z,99.90
2023-10-23T06:03:14.708Z,99.90
2023-10-23T06:05:45.561Z,99.90
2023-10-23T06:08:15.055Z,99.90
2023-10-23T06:10:44.995Z,99.90
2023-10-23T06:13:15.650Z,99.90
2023-10-23T06:15:46.878Z,99.90
2023-10-23T06:18:15.623Z,99.90
2023-10-23T06:20:46.506Z,99.90
2023-10-23T06:23:16.607Z,99.90
2023-10-23T06:25:45.868Z,99.90
2023-10-23T06:28:16.399Z,99.90
2023-10-23T06:30:51.952Z,99.90
2023-10-23T06:33:21.713Z,99.90
2023-10-23T06:35:59.444Z,99.90
2023-10-23T06:38:28.557Z,99.90
2023-10-23T06:40:57.382Z,99.90
2023-10-23T06:43:26.320Z,99.90
2023-10-23T06:46:02.382Z,99.90
2023-10-23T06:48:33.455Z,99.90
2023-10-23T06:51:11.224Z,99.90
2023-10-23T06:53:41.944Z,99.90
2023-10-23T06:56:14.192Z,99.90
2023-10-23T06:58:51.805Z,99.90
2023-10-23T07:01:37.958Z,99.90
2023-10-23T07:04:15.268Z,99.90
2023-10-23T07:06:46.348Z,99.90
2023-10-23T07:09:18.848Z,99.90
2023-10-23T07:11:51.256Z,99.90
2023-10-23T07:14:24.992Z,99.90
2023-10-23T07:17:01.785Z,99.90
2023-10-23T07:19:33.856Z,99.90
2023-10-23T07:22:05.931Z,99.90
2023-10-23T07:24:43.513Z,99.90
2023-10-23T07:27:16.726Z,99.90
2023-10-23T07:29:47.288Z,99.90
2023-10-23T07:32:17.770Z,99.90
2023-10-23T07:34:46.445Z,99.90
2023-10-23T07:37:19.513Z,99.90
2023-10-23T07:39:49.169Z,99.90
2023-10-23T07:42:19.240Z,99.90
2023-10-23T07:44:49.355Z,99.90
2023-10-23T07:47:23.374Z,99.90
2023-10-23T07:49:55.163Z,99.90
2023-10-23T07:52:29.219Z,99.90
2023-10-23T07:55:03.869Z,99.90
2023-10-23T07:57:37.073Z,99.90
2023-10-23T08:00:07.422Z,99.90
2023-10-23T08:02:40.197Z,99.90
2023-10-23T08:05:13.666Z,99.90
2023-10-23T08:07:44.087Z,99.90
2023-10-23T08:10:13.991Z,99.90
2023-10-23T08:12:43.284Z,99.90
2023-10-23T08:15:13.361Z,99.90
2023-10-23T08:17:46.462Z,99.90
2023-10-23T08:20:15.955Z,99.90
2023-10-23T08:22:45.731Z,99.90
2023-10-23T08:25:15.441Z,99.90
2023-10-23T08:27:49.803Z,99.90
2023-10-23T08:30:21.070Z,99.90
2023-10-23T08:32:58.486Z,99.90
2023-10-23T08:35:29.442Z,99.90
2023-10-23T08:37:58.513Z,99.90
2023-10-23T08:40:27.340Z,99.90
2023-10-23T08:42:55.982Z,99.90
2023-10-23T08:45:28.164Z,99.90
2023-10-23T08:48:00.115Z,99.90
2023-10-23T08:50:31.071Z,99.90
2023-10-23T08:53:08.773Z,99.90
2023-10-23T08:55:42.791Z,99.90
2023-10-23T08:58:17.776Z,99.90
2023-10-23T09:00:48.182Z,99.90
2023-10-23T09:04:02.900Z,99.90
2023-10-23T09:06:19.703Z,99.90
2023-10-23T09:08:51.775Z,99.90
2023-10-23T09:11:23.934Z,99.90
2023-10-23T09:13:55.578Z,99.90
2023-10-23T09:16:28.878Z,99.90
2023-10-23T09:18:59.425Z,99.90
2023-10-23T09:21:28.245Z,99.90
2023-10-23T09:24:00.174Z,99.90
2023-10-23T09:26:29.483Z,99.90
2023-10-23T09:28:58.670Z,99.90
2023-10-23T09:31:27.798Z,99.90
2023-10-23T09:33:58.753Z,99.90
2023-10-23T09:36:29.187Z,99.90
2023-10-23T09:39:00.816Z,99.90
2023-10-23T09:41:31.545Z,99.90
2023-10-23T09:44:01.996Z,99.90
2023-10-23T09:46:33.994Z,99.90
2023-10-23T09:49:09.062Z,99.90
2023-10-23T09:51:41.051Z,99.90
2023-10-23T09:54:17.960Z,99.90
2023-10-23T09:56:51.087Z,99.90
2023-10-23T09:59:21.346Z,99.90
2023-10-23T10:01:52.525Z,99.90
2023-10-23T10:04:30.895Z,99.90
2023-10-23T10:07:10.124Z,99.90
2023-10-23T10:09:42.921Z,99.90
2023-10-23T10:12:12.339Z,99.90
2023-10-23T10:14:45.031Z,99.90
2023-10-23T10:17:15.877Z,99.90
2023-10-23T10:19:47.799Z,99.90
2023-10-23T10:22:24.930Z,99.90
2023-10-23T10:24:55.643Z,99.90
2023-10-23T10:27:26.202Z,99.90
2023-10-23T10:29:55.406Z,99.90
2023-10-23T10:32:26.060Z,99.90
2023-10-23T10:34:58.321Z,99.90
2023-10-23T10:37:29.102Z,99.90
2023-10-23T10:40:09.608Z,99.90
2023-10-23T10:42:43.410Z,99.90
2023-10-23T10:45:20.890Z,99.90
2023-10-23T10:47:55.677Z,99.90
2023-10-23T10:50:53.724Z,99.90
2023-10-23T10:53:31.989Z,99.90
2023-10-23T10:56:06.409Z,99.90
2023-10-23T10:58:36.594Z,99.90
2023-10-23T11:01:05.526Z,99.90
2023-10-23T11:03:36.557Z,99.90
2023-10-23T11:06:10.485Z,99.90
2023-10-23T11:08:45.763Z,99.90
2023-10-23T11:11:17.922Z,99.90
2023-10-23T11:13:48.610Z,99.90
2023-10-23T11:16:22.353Z,99.90
2023-10-23T11:18:55.632Z,99.90
2023-10-23T11:21:30.450Z,99.90
2023-10-23T11:24:06.856Z,99.90
2023-10-23T11:26:38.442Z,99.90
2023-10-23T11:29:10.646Z,99.90
2023-10-23T11:31:43.140Z,99.90
2023-10-23T11:34:16.470Z,99.90
2023-10-23T11:36:54.409Z,99.90
2023-10-23T11:39:25.082Z,99.90
2023-10-23T11:42:00.983Z,99.90
2023-10-23T11:44:36.075Z,99.90
2023-10-23T11:47:09.724Z,99.90
2023-10-23T11:49:43.167Z,99.90
2023-10-23T11:52:22.725Z,99.90
2023-10-23T11:55:09.229Z,99.90
2023-10-23T11:57:48.946Z,99.90
2023-10-23T12:00:28.234Z,99.90
2023-10-23T12:02:59.439Z,98.10
2023-10-23T12:05:28.856Z,98.50
2023-10-23T12:07:59.712Z,96.60
2023-10-23T12:10:31.006Z,98.60
2023-10-23T12:13:00.498Z,99.90
2023-10-23T12:15:29.576Z,99.90
2023-10-23T12:18:04.693Z,99.00
2023-10-23T12:20:34.067Z,99.00
2023-10-23T12:23:04.373Z,97.60
2023-10-23T12:25:33.312Z,99.10
2023-10-23T12:28:02.149Z,96.70
2023-10-23T12:30:31.057Z,97.40
2023-10-23T12:33:17.198Z,98.20
2023-10-23T12:35:54.366Z,98.00
2023-10-23T12:38:28.693Z,96.40
2023-10-23T12:40:59.787Z,98.40
2023-10-23T12:43:30.769Z,99.30
2023-10-23T12:46:02.317Z,99.90
2023-10-23T12:48:39.107Z,99.90
2023-10-23T12:51:10.559Z,98.70
2023-10-23T12:53:43.825Z,98.10
2023-10-23T12:56:15.556Z,98.10
2023-10-23T12:58:48.358Z,97.50
2023-10-23T13:01:18.817Z,97.40
2023-10-23T13:03:52.017Z,97.60
2023-10-23T13:06:23.250Z,97.70
2023-10-23T13:08:56.357Z,98.90
2023-10-23T13:11:34.750Z,96.10
2023-10-23T13:14:10.669Z,96.00
2023-10-23T13:16:41.686Z,94.20
2023-10-23T13:19:14.968Z,94.50
2023-10-23T13:21:44.967Z,95.70
2023-10-23T13:24:21.675Z,95.80
2023-10-23T13:27:06.240Z,97.90
2023-10-23T13:29:51.302Z,98.30
2023-10-23T13:32:40.042Z,97.40
2023-10-23T13:35:22.527Z,95.90
2023-10-23T13:38:06.242Z,97.30
2023-10-23T13:40:50.366Z,98.20
2023-10-23T13:43:37.103Z,99.40
2023-10-23T13:46:20.447Z,97.30
2023-10-23T13:49:11.135Z,96.70
2023-10-23T13:52:03.606Z,97.50
2023-10-23T13:54:49.332Z,97.80
2023-10-23T13:57:49.056Z,99.50
2023-10-23T14:00:25.484Z,99.70
2023-10-23T14:02:54.552Z,99.90
2023-10-23T14:05:25.615Z,99.90
2023-10-23T14:07:56.744Z,99.90
2023-10-23T14:10:26.123Z,99.90
2023-10-23T14:12:58.557Z,99.90
2023-10-23T14:15:30.466Z,99.90
2023-10-23T14:17:59.795Z,99.90
2023-10-23T14:20:29.082Z,99.90
2023-10-23T14:22:58.384Z,99.90
2023-10-23T14:25:27.767Z,99.90
2023-10-23T14:27:58.377Z,99.90
2023-10-23T14:30:31.831Z,99.90
2023-10-23T14:33:01.865Z,99.90
2023-10-23T14:35:37.919Z,99.90
2023-10-23T14:38:10.417Z,99.90
2023-10-23T14:40:39.218Z,99.90
2023-10-23T14:43:09.389Z,99.90
2023-10-23T14:45:42.102Z,99.90
2023-10-23T14:48:14.446Z,99.90
2023-10-23T14:50:46.828Z,99.90
2023-10-23T14:53:18.538Z,99.90
2023-10-23T14:55:50.307Z,99.90
2023-10-23T14:58:22.994Z,99.90
2023-10-23T15:00:52.982Z,99.90
2023-10-23T15:03:24.194Z,99.90
2023-10-23T15:05:54.997Z,99.90
2023-10-23T15:08:27.866Z,99.90
2023-10-23T15:11:01.756Z,99.90
2023-10-23T15:13:33.969Z,99.90
2023-10-23T15:16:11.279Z,99.90
2023-10-23T15:19:01.874Z,99.90
2023-10-23T15:21:36.521Z,99.90
2023-10-23T15:24:14.769Z,99.90
2023-10-23T15:26:48.818Z,99.90
2023-10-23T15:29:27.811Z,99.90
2023-10-23T15:32:07.877Z,99.90
2023-10-23T15:34:48.999Z,99.90
2023-10-23T15:37:23.223Z,99.90
2023-10-23T15:39:53.589Z,99.90
2023-10-23T15:42:37.676Z,99.90
2023-10-23T15:45:13.556Z,99.90
2023-10-23T15:47:47.365Z,99.90
2023-10-23T15:50:19.276Z,99.90
2023-10-23T15:52:54.815Z,99.90
2023-10-23T15:55:28.402Z,99.90
2023-10-23T15:58:10.663Z,99.90
2023-10-23T16:00:52.680Z,99.90
2023-10-23T16:03:29.653Z,99.90
2023-10-23T16:06:13.844Z,99.90
2023-10-23T16:08:49.290Z,99.90
2023-10-23T16:11:30.704Z,99.90
2023-10-23T16:14:05.960Z,99.90
2023-10-23T16:16:43.461Z,99.90
2023-10-23T16:19:12.628Z,99.90
2023-10-23T16:21:46.320Z,99.90
2023-10-23T16:24:18.563Z,99.90
2023-10-23T16:26:50.464Z,99.90
2023-10-23T16:29:23.188Z,99.90
2023-10-23T16:32:03.376Z,99.90
2023-10-23T16:34:34.914Z,99.90
2023-10-23T16:37:09.533Z,99.90
2023-10-23T16:39:46.208Z,99.90
2023-10-23T16:42:17.802Z,99.90
2023-10-23T16:44:55.954Z,99.90
2023-10-23T16:47:34.229Z,99.90
2023-10-23T16:50:08.449Z,99.90
2023-10-23T16:52:41.882Z,99.90
2023-10-23T16:55:20.524Z,99.90
2023-10-23T16:57:56.210Z,99.90
2023-10-23T17:00:29.833Z,99.90
2023-10-23T17:03:03.982Z,99.90
2023-10-23T17:05:43.378Z,99.90
2023-10-23T17:08:19.155Z,99.90
2023-10-23T17:10:55.698Z,99.90
2023-10-23T17:13:31.247Z,99.90
2023-10-23T17:16:09.860Z,99.90
2023-10-23T17:18:46.272Z,99.90
2023-10-23T17:21:25.454Z,99.90
2023-10-23T17:24:00.887Z,99.90
2023-10-23T17:26:40.002Z,99.90
2023-10-23T17:29:11.943Z,99.90
2023-10-23T17:31:45.168Z,99.90
2023-10-23T17:34:21.433Z,99.90
2023-10-23T17:36:53.263Z,99.90
2023-10-23T17:39:24.699Z,99.90
2023-10-23T17:41:58.597Z,99.90
2023-10-23T17:44:28.566Z,99.90
2023-10-23T17:47:10.655Z,99.90
2023-10-23T17:49:51.073Z,99.90
2023-10-23T17:52:31.637Z,99.90
2023-10-23T17:55:19.935Z,99.90
2023-10-23T17:57:51.655Z,99.90
2023-10-23T18:00:24.718Z,99.90
2023-10-23T18:03:10.596Z,99.90
2023-10-23T18:05:51.453Z,99.90
2023-10-23T18:08:21.319Z,99.90
2023-10-23T18:10:52.288Z,99.90
2023-10-23T18:13:21.902Z,99.90
2023-10-23T18:15:56.659Z,99.90
2023-10-23T18:18:31.766Z,99.90
2023-10-23T18:21:18.755Z,99.90
2023-10-23T18:23:58.763Z,99.90
2023-10-23T18:26:34.907Z,99.90
2023-10-23T18:29:07.197Z,99.90
2023-10-23T18:31:37.626Z,99.90
2023-10-23T18:34:09.318Z,99.90
2023-10-23T18:36:39.875Z,99.90
2023-10-23T18:39:09.787Z,99.90
2023-10-23T18:41:41.409Z,99.90
2023-10-23T18:44:13.488Z,99.90
2023-10-23T18:46:49.063Z,99.90
2023-10-23T18:49:19.452Z,99.90
2023-10-23T18:51:50.688Z,99.90
2023-10-23T18:54:20.189Z,99.90
2023-10-23T18:56:49.102Z,99.90
2023-10-23T18:59:18.550Z,99.90
2023-10-23T19:01:48.497Z,99.90
2023-10-23T19:04:17.802Z,99.90
2023-10-23T19:06:47.379Z,99.90
2023-10-23T19:09:18.125Z,99.90
2023-10-23T19:11:49.000Z,99.90
2023-10-23T19:14:21.512Z,99.90
2023-10-23T19:16:50.778Z,99.90
2023-10-23T19:19:20.933Z,99.90
2023-10-23T19:21:50.071Z,99.90
2023-10-23T19:24:21.206Z,99.90
2023-10-23T19:26:50.444Z,99.90
2023-10-23T19:29:19.774Z,99.90
2023-10-23T19:31:49.924Z,99.90
2023-10-23T19:34:20.179Z,99.90
2023-10-23T19:36:50.279Z,99.90
2023-10-23T19:39:22.400Z,99.90
2023-10-23T19:41:54.001Z,99.90
2023-10-23T19:44:23.508Z,99.90
2023-10-23T19:46:54.424Z,99.90
2023-10-23T19:49:26.471Z,99.90
2023-10-23T19:52:15.116Z,99.90
2023-10-23T19:55:04.331Z,99.90
2023-10-23T19:57:56.515Z,99.90
2023-10-23T20:00:34.851Z,99.90
2023-10-23T20:03:14.274Z,99.90
2023-10-23T20:08:49.663Z,99.90
2023-10-23T20:11:22.834Z,99.90
2023-10-23T20:13:52.201Z,99.90
2023-10-23T20:16:21.958Z,99.90
2023-10-23T20:18:51.266Z,99.90
2023-10-23T20:21:20.600Z,99.90
2023-10-23T20:23:50.025Z,99.90
2023-10-23T20:26:19.512Z,99.90
2023-10-23T20:28:52.750Z,99.90
2023-10-23T20:31:23.509Z,99.90
2023-10-23T20:33:54.718Z,99.90
2023-10-23T20:36:25.129Z,99.90
2023-10-23T20:38:54.122Z,99.90
2023-10-23T20:41:23.809Z,99.90
2023-10-23T20:43:55.388Z,99.90
2023-10-23T20:46:25.335Z,99.90
2023-10-23T20:48:55.039Z,99.90
2023-10-23T20:51:25.258Z,99.90
2023-10-23T20:53:54.210Z,99.90
2023-10-23T20:56:24.306Z,99.90
2023-10-23T20:58:56.851Z,99.90
2023-10-23T21:01:39.791Z,99.90
2023-10-23T21:04:25.869Z,99.90
2023-10-23T21:07:01.451Z,99.90
2023-10-23T21:09:48.902Z,99.90
2023-10-23T21:12:32.017Z,99.90
2023-10-23T21:15:22.746Z,99.90
2023-10-23T21:18:02.963Z,99.90
2023-10-23T21:20:46.214Z,99.90
2023-10-23T21:23:27.470Z,99.90
2023-10-23T21:26:05.195Z,99.90
2023-10-23T21:28:49.184Z,99.90
2023-10-23T21:31:27.519Z,99.90
2023-10-23T21:34:07.367Z,99.90
2023-10-23T21:36:40.787Z,99.90
2023-10-23T21:39:26.272Z,99.90
2023-10-23T21:42:20.081Z,99.90
2023-10-23T21:45:00.364Z,99.90
2023-10-23T21:47:46.624Z,99.90
2023-10-23T21:50:26.197Z,99.90
2023-10-23T21:53:11.979Z,99.90
2023-10-23T21:55:58.694Z,99.90
2023-10-23T21:59:05.265Z,99.90
2023-10-23T22:01:45.691Z,99.90
2023-10-23T22:04:32.862Z,99.90
2023-10-23T22:07:16.419Z,99.90
2023-10-23T22:10:01.714Z,99.90
2023-10-23T22:12:35.277Z,99.90
2023-10-23T22:15:22.685Z,99.90
2023-10-23T22:17:55.217Z,99.90
2023-10-23T22:20:44.254Z,99.90
2023-10-23T22:23:27.774Z,99.90
2023-10-23T22:26:16.245Z,99.90
2023-10-23T22:29:01.225Z,99.90
2023-10-23T22:31:49.578Z,99.90
2023-10-23T22:34:31.532Z,99.90
2023-10-23T22:38:02.085Z,99.90
2023-10-23T22:40:14.701Z,99.90
2023-10-23T22:43:04.550Z,99.90
2023-10-23T22:45:50.838Z,99.90
2023-10-23T22:48:45.657Z,99.90
2023-10-23T22:51:27.180Z,99.90
2023-10-23T22:54:15.223Z,99.90
2023-10-23T22:56:53.521Z,99.90
2023-10-23T22:59:23.640Z,99.90
2023-10-23T23:01:58.618Z,99.90
2023-10-23T23:04:43.450Z,99.90
2023-10-23T23:07:20.906Z,99.90
2023-10-23T23:10:01.485Z,99.90
2023-10-23T23:12:53.314Z,99.90
2023-10-23T23:15:30.151Z,99.90
2023-10-23T23:18:21.772Z,99.90
2023-10-23T23:21:00.848Z,99.90
2023-10-23T23:23:48.925Z,99.90
2023-10-23T23:26:34.280Z,99.90
2023-10-23T23:29:19.542Z,99.90
2023-10-23T23:32:02.026Z,99.90
2023-10-23T23:34:36.984Z,99.90
2023-10-23T23:37:08.839Z,99.90
2023-10-23T23:39:46.160Z,99.90
2023-10-23T23:42:24.449Z,99.90
2023-10-23T23:45:07.294Z,99.90
2023-10-23T23:47:46.242Z,99.90
2023-10-23T23:50:31.596Z,99.90
2023-10-23T23:53:15.931Z,99.90
2023-10-23T23:55:49.815Z,99.90
2023-10-23T23:58:32.406Z,99.90
